Time;durP1;ratioP1;P1;durP2;ratioP2;P2;SDS_P1;SDS_P2;PMS_P1;PMS_P2;Temp;Humidity;BMP_temperature;BMP_pressure;BME280_temperature;BME280_humidity;BME280_pressure;Samples;Min_cycle;Max_cycle;Signal;HPM_P1;HPM_P2
2023/06/23 00:00:50;;;;;;;3.88;2.10;;;;;;;22.69;69.83;95711.59;5008482;28;20210;-87
2023/06/23 00:03:16;;;;;;;2.47;2.15;;;;;;;22.71;68.72;95712.88;5010107;28;20210;-87
2023/06/23 00:05:43;;;;;;;3.10;2.00;;;;;;;22.69;69.43;95716.84;5010388;28;20233;-87
2023/06/23 00:08:16;;;;;;;2.05;1.73;;;;;;;22.55;69.01;95708.53;5009725;28;20250;-86
2023/06/23 00:10:44;;;;;;;3.65;1.92;;;;;;;22.58;68.73;95707.25;5010437;28;20265;-87
2023/06/23 00:13:11;;;;;;;4.32;1.70;;;;;;;22.55;68.58;95705.94;5009885;28;20206;-87
2023/06/23 00:15:37;;;;;;;3.22;1.98;;;;;;;22.62;68.01;95713.59;5007138;28;20206;-87
2023/06/23 00:18:04;;;;;;;4.80;1.80;;;;;;;22.61;68.69;95707.56;5002621;28;20226;-87
2023/06/23 00:20:31;;;;;;;2.53;1.90;;;;;;;22.60;67.64;95708.59;5010048;28;20634;-87
2023/06/23 00:22:57;;;;;;;1.85;1.60;;;;;;;22.58;68.10;95705.44;5009440;28;20202;-87
2023/06/23 00:25:24;;;;;;;2.88;1.75;;;;;;;22.58;68.28;95694.94;5010072;28;20225;-87
2023/06/23 00:27:51;;;;;;;1.95;1.67;;;;;;;22.37;67.35;95693.94;5009818;28;20223;-87
2023/06/23 00:30:18;;;;;;;3.85;1.70;;;;;;;22.43;67.39;95699.25;5009363;28;20583;-87
2023/06/23 00:32:44;;;;;;;4.95;1.75;;;;;;;22.37;67.19;95695.78;5008045;28;20199;-87
2023/06/23 00:35:13;;;;;;;1.50;1.40;;;;;;;22.37;67.01;95696.56;5009563;28;20207;-87
2023/06/23 00:37:39;;;;;;;2.67;1.80;;;;;;;22.33;66.66;95694.69;5009626;28;20735;-87
2023/06/23 00:40:10;;;;;;;1.92;1.80;;;;;;;22.34;67.01;95698.91;5009909;28;20210;-87
2023/06/23 00:42:44;;;;;;;1.92;1.55;;;;;;;22.43;66.54;95701.88;5009662;28;20296;-86
2023/06/23 00:45:13;;;;;;;2.28;1.67;;;;;;;22.50;66.55;95702.47;5009167;28;20226;-87
2023/06/23 00:47:42;;;;;;;2.17;1.50;;;;;;;22.54;65.79;95698.28;5009817;28;20277;-87
2023/06/23 00:50:10;;;;;;;1.88;1.60;;;;;;;22.49;65.71;95703.53;5007835;28;20603;-88
2023/06/23 00:52:37;;;;;;;1.95;1.60;;;;;;;22.52;65.45;95709.03;5009087;28;20230;-87
2023/06/23 00:55:04;;;;;;;4.03;2.03;;;;;;;22.54;66.45;95721.91;4996190;28;20203;-87
2023/06/23 00:57:30;;;;;;;1.92;1.38;;;;;;;22.54;66.22;95724.53;5009249;28;20223;-87
2023/06/23 00:59:57;;;;;;;2.28;1.70;;;;;;;22.47;65.79;95730.00;5009081;28;20214;-87
2023/06/23 01:02:27;;;;;;;2.80;1.65;;;;;;;22.36;66.99;95734.34;5009120;28;20202;-87
2023/06/23 01:04:54;;;;;;;1.98;1.67;;;;;;;22.37;65.54;95737.75;5008825;28;20270;-87
2023/06/23 01:07:31;;;;;;;3.72;1.60;;;;;;;22.35;64.71;95751.13;5007378;28;20732;-87
2023/06/23 01:10:03;;;;;;;4.75;1.88;;;;;;;22.42;64.52;95745.69;5008922;28;20203;-87
2023/06/23 01:12:39;;;;;;;1.50;1.38;;;;;;;22.52;64.91;95739.75;5000747;28;20219;-87
2023/06/23 01:15:12;;;;;;;1.88;1.67;;;;;;;22.54;64.42;95738.47;5008264;28;20198;-87
2023/06/23 01:17:46;;;;;;;2.17;1.52;;;;;;;22.55;65.00;95732.16;5008915;28;20226;-87
2023/06/23 01:20:21;;;;;;;1.52;1.42;;;;;;;22.48;65.12;95731.59;5009236;28;20607;-88
2023/06/23 01:23:04;;;;;;;2.25;1.60;;;;;;;22.46;64.11;95740.75;5003781;28;20659;-87
2023/06/23 01:25:41;;;;;;;2.03;1.60;;;;;;;22.31;63.77;95730.88;5009087;28;20202;-88
2023/06/23 01:28:43;;;;;;;2.28;1.50;;;;;;;22.26;63.57;95723.75;4989714;28;20238;-88
2023/06/23 01:31:15;;;;;;;2.13;1.73;;;;;;;22.25;63.79;95727.41;4997633;28;20209;-87
2023/06/23 01:33:48;;;;;;;4.15;1.98;;;;;;;22.21;64.46;95731.56;5008293;28;20198;-87
2023/06/23 01:36:22;;;;;;;2.65;1.83;;;;;;;22.21;65.10;95728.94;5008730;28;20221;-87
2023/06/23 01:38:53;;;;;;;2.00;1.80;;;;;;;22.23;64.53;95734.72;5007092;28;20251;-87
2023/06/23 01:41:23;;;;;;;2.63;1.60;;;;;;;22.20;64.29;95727.34;5008281;28;20203;-87
2023/06/23 01:43:56;;;;;;;2.97;1.45;;;;;;;22.28;64.17;95736.63;5008494;28;20209;-88
2023/06/23 01:46:34;;;;;;;1.98;1.60;;;;;;;22.19;65.02;95732.84;5008473;28;20253;-87
2023/06/23 01:49:07;;;;;;;1.70;1.60;;;;;;;22.23;64.65;95731.31;5008347;28;20305;-87
2023/06/23 01:51:36;;;;;;;2.60;1.83;;;;;;;22.30;64.17;95724.06;5008901;28;20207;-87
2023/06/23 01:54:05;;;;;;;2.00;1.70;;;;;;;22.36;63.96;95715.97;5007036;28;20206;-87
2023/06/23 01:56:34;;;;;;;2.00;1.80;;;;;;;22.31;63.10;95717.78;5008224;28;20600;-87
2023/06/23 01:59:03;;;;;;;2.20;1.80;;;;;;;22.28;64.30;95723.50;5008897;28;20246;-87
2023/06/23 02:01:33;;;;;;;1.60;1.50;;;;;;;22.24;63.89;95714.53;5008596;28;20249;-87
2023/06/23 02:04:03;;;;;;;2.10;1.70;;;;;;;22.27;64.13;95725.34;5008079;28;20206;-86
2023/06/23 02:06:31;;;;;;;3.15;1.80;;;;;;;22.29;64.11;95723.25;5007465;28;20223;-87
2023/06/23 02:08:59;;;;;;;2.13;1.70;;;;;;;22.29;64.55;95714.59;5003415;28;20601;-88
2023/06/23 02:11:27;;;;;;;2.13;1.70;;;;;;;22.23;65.79;95712.97;5000525;28;20280;-87
2023/06/23 02:13:56;;;;;;;1.98;1.58;;;;;;;22.16;64.75;95712.34;5007701;28;20209;-87
2023/06/23 02:16:28;;;;;;;2.08;1.70;;;;;;;22.15;64.65;95723.88;5007667;28;20202;-87
2023/06/23 02:18:57;;;;;;;2.33;1.40;;;;;;;22.19;64.57;95731.00;5008332;28;20308;-87
2023/06/23 02:21:25;;;;;;;2.53;1.65;;;;;;;22.21;64.18;95743.88;5008369;28;20206;-87
2023/06/23 02:23:55;;;;;;;1.92;1.67;;;;;;;22.22;63.63;95746.25;5007873;28;20199;-87
2023/06/23 02:26:25;;;;;;;1.60;1.50;;;;;;;22.24;63.86;95749.44;5003821;28;20207;-87
2023/06/23 02:28:52;;;;;;;3.42;1.67;;;;;;;22.20;64.81;95732.59;5008506;28;20230;-87
2023/06/23 02:31:21;;;;;;;2.10;1.90;;;;;;;22.16;64.70;95734.13;5008086;28;20210;-87
2023/06/23 02:33:47;;;;;;;2.28;1.80;;;;;;;22.16;64.40;95734.13;5008060;28;20206;-87
2023/06/23 02:36:19;;;;;;;1.73;1.60;;;;;;;22.15;64.06;95716.00;5007106;28;20195;-87
2023/06/23 02:38:48;;;;;;;2.33;2.00;;;;;;;22.15;64.10;95722.03;5007377;28;20277;-87
2023/06/23 02:41:16;;;;;;;1.83;1.60;;;;;;;22.14;64.31;95725.69;5008227;28;20843;-87
2023/06/23 02:43:47;;;;;;;2.50;1.85;;;;;;;22.08;64.59;95739.81;5005797;28;20691;-88
2023/06/23 02:46:18;;;;;;;2.90;1.70;;;;;;;22.00;64.74;95741.03;5008186;28;20203;-87
2023/06/23 02:48:48;;;;;;;1.80;1.70;;;;;;;22.02;64.50;95741.56;4992142;28;20729;-87
2023/06/23 02:51:19;;;;;;;1.98;1.58;;;;;;;22.15;64.10;95745.66;5001655;28;20190;-87
2023/06/23 02:53:49;;;;;;;1.83;1.60;;;;;;;22.08;64.59;95736.41;5024562;28;20218;-87
2023/06/23 02:56:20;;;;;;;1.80;1.63;;;;;;;21.90;64.07;95732.22;5011162;28;20202;-88
2023/06/23 02:58:48;;;;;;;1.98;1.58;;;;;;;21.83;64.66;95731.59;5010332;28;20230;-87
2023/06/23 03:01:16;;;;;;;2.35;1.60;;;;;;;21.84;64.50;95730.56;5010855;28;20285;-87
2023/06/23 03:03:45;;;;;;;1.85;1.52;;;;;;;21.87;65.37;95730.88;5011312;28;20354;-87
2023/06/23 03:06:21;;;;;;;2.42;1.88;;;;;;;21.94;64.78;95728.06;5003152;28;20187;-87
2023/06/23 03:08:48;;;;;;;1.40;1.30;;;;;;;21.86;64.50;95737.16;5011593;28;20738;-88
2023/06/23 03:11:15;;;;;;;3.60;1.40;;;;;;;21.88;65.25;95739.53;5011306;28;20672;-87
2023/06/23 03:13:43;;;;;;;2.95;1.67;;;;;;;21.86;65.12;95744.22;5011330;28;20215;-87
2023/06/23 03:16:14;;;;;;;2.60;1.52;;;;;;;21.87;65.13;95737.94;5009401;28;20293;-87
2023/06/23 03:18:45;;;;;;;1.73;1.50;;;;;;;21.88;65.44;95734.28;5011320;28;20230;-87
2023/06/23 03:21:11;;;;;;;1.67;1.45;;;;;;;21.97;65.62;95740.69;5010942;28;20198;-87
2023/06/23 03:23:40;;;;;;;1.98;1.33;;;;;;;21.94;65.50;95738.53;5010699;28;20277;-87
2023/06/23 03:26:09;;;;;;;1.50;1.35;;;;;;;21.91;65.44;95731.97;5010696;28;20586;-87
2023/06/23 03:28:40;;;;;;;2.35;1.40;;;;;;;21.92;65.58;95724.91;5011203;28;20230;-87
2023/06/23 03:31:08;;;;;;;1.60;1.50;;;;;;;21.94;65.63;95728.06;5008972;28;20203;-87
2023/06/23 03:33:37;;;;;;;1.50;1.40;;;;;;;21.89;66.11;95734.03;5011000;28;20199;-87
2023/06/23 03:36:11;;;;;;;2.95;1.30;;;;;;;21.85;66.53;95727.69;5010566;28;20214;-87
2023/06/23 03:38:45;;;;;;;2.33;1.60;;;;;;;21.81;66.57;95728.44;5011046;28;20219;-88
2023/06/23 03:41:13;;;;;;;1.92;1.58;;;;;;;21.82;66.68;95740.50;5011219;28;20685;-87
2023/06/23 03:43:50;;;;;;;1.52;1.42;;;;;;;21.82;66.44;95730.81;5011082;28;20203;-87
2023/06/23 03:46:24;;;;;;;1.60;1.50;;;;;;;21.83;67.06;95745.50;5006130;28;20195;-87
2023/06/23 03:48:54;;;;;;;2.00;1.42;;;;;;;21.80;67.04;95739.94;5010239;28;20234;-87
2023/06/23 03:51:22;;;;;;;3.90;1.40;;;;;;;21.83;67.13;95748.13;5003171;28;20744;-87
2023/06/23 03:53:52;;;;;;;2.58;1.40;;;;;;;21.84;66.75;95754.16;5010837;28;20218;-87
2023/06/23 03:56:20;;;;;;;1.45;1.35;;;;;;;21.87;66.82;95759.72;5009305;28;20197;-87
2023/06/23 03:58:48;;;;;;;1.83;1.30;;;;;;;21.75;67.57;95761.63;5010055;28;20211;-88
2023/06/23 04:01:17;;;;;;;1.40;1.30;;;;;;;21.76;67.03;95757.19;5004315;28;20624;-87
2023/06/23 04:03:45;;;;;;;2.05;1.35;;;;;;;21.80;67.26;95756.47;5005549;28;20581;-88
2023/06/23 04:06:14;;;;;;;1.85;1.60;;;;;;;21.77;67.21;95764.00;5011735;28;20695;-85
2023/06/23 04:08:42;;;;;;;1.10;1.10;;;;;;;21.68;67.60;95753.97;5012268;28;20230;-86
2023/06/23 04:11:12;;;;;;;1.58;1.00;;;;;;;21.79;67.45;95754.09;5012520;28;20206;-87
2023/06/23 04:13:40;;;;;;;1.48;1.38;;;;;;;21.80;67.71;95753.84;5012795;28;20702;-86
2023/06/23 04:16:08;;;;;;;1.75;1.10;;;;;;;21.91;67.16;95760.03;5012926;28;20190;-86
2023/06/23 04:18:37;;;;;;;1.15;1.05;;;;;;;21.91;67.42;95767.91;5012034;28;20242;-87
2023/06/23 04:21:05;;;;;;;1.77;1.02;;;;;;;21.87;67.76;95764.97;5011615;28;20268;-87
2023/06/23 04:23:34;;;;;;;1.92;1.08;;;;;;;21.80;68.10;95771.41;5012658;28;20206;-86
2023/06/23 04:26:02;;;;;;;1.38;1.20;;;;;;;21.80;68.52;95776.63;5004894;28;20226;-86
2023/06/23 04:28:33;;;;;;;1.08;0.95;;;;;;;21.87;68.59;95772.03;5012122;28;20231;-86
2023/06/23 04:31:05;;;;;;;1.88;1.23;;;;;;;21.86;68.38;95776.47;5012654;28;20202;-86
2023/06/23 04:33:34;;;;;;;0.93;0.80;;;;;;;21.87;68.77;95782.50;5012487;28;20205;-87
2023/06/23 04:36:06;;;;;;;0.90;0.90;;;;;;;21.74;69.16;95782.88;5006178;28;20210;-87
2023/06/23 04:38:35;;;;;;;1.95;1.00;;;;;;;21.73;69.71;95789.16;5003229;28;20230;-87
2023/06/23 04:41:08;;;;;;;0.88;0.88;;;;;;;21.68;70.79;95785.41;5004673;28;20195;-87
2023/06/23 04:43:39;;;;;;;0.90;0.90;;;;;;;21.75;70.79;95787.84;5001197;28;20214;-88
2023/06/23 04:46:13;;;;;;;2.17;0.80;;;;;;;21.59;71.38;95792.09;5004752;28;20203;-86
2023/06/23 04:48:47;;;;;;;0.93;0.80;;;;;;;21.47;71.98;95790.59;5002814;28;20223;-87
2023/06/23 04:51:16;;;;;;;0.70;0.70;;;;;;;21.47;72.95;95790.59;5003102;28;20238;-87
2023/06/23 04:53:47;;;;;;;0.77;0.77;;;;;;;21.50;72.29;95806.63;5011387;28;20302;-89
2023/06/23 04:56:18;;;;;;;0.90;0.85;;;;;;;21.53;73.02;95816.66;5001252;28;20217;-87
2023/06/23 04:58:53;;;;;;;1.00;0.90;;;;;;;21.45;75.26;95803.13;4997569;28;20608;-88
2023/06/23 05:01:20;;;;;;;0.90;0.90;;;;;;;21.31;76.25;95805.28;5001895;28;20205;-85
2023/06/23 05:03:48;;;;;;;1.35;0.77;;;;;;;21.25;77.26;95811.47;5002635;28;20204;-87
2023/06/23 05:06:28;;;;;;;1.88;0.70;;;;;;;21.25;78.83;95817.50;5001862;28;20202;-87
2023/06/23 05:08:57;;;;;;;2.72;0.77;;;;;;;21.01;80.19;95824.66;5003000;28;20495;-86
2023/06/23 05:11:27;;;;;;;1.05;0.70;;;;;;;20.94;82.60;95818.00;4991781;28;20237;-85
2023/06/23 05:14:04;;;;;;;0.90;0.90;;;;;;;21.04;82.57;95811.09;5000198;28;20779;-86
2023/06/23 05:16:34;;;;;;;1.05;0.70;;;;;;;21.09;82.98;95820.09;5010342;28;20281;-87
2023/06/23 05:19:06;;;;;;;0.70;0.70;;;;;;;21.08;83.46;95828.97;5009180;28;20238;-86
2023/06/23 05:21:34;;;;;;;0.77;0.70;;;;;;;21.09;83.75;95822.69;5010483;28;20563;-86
2023/06/23 05:24:04;;;;;;;1.10;1.00;;;;;;;20.96;84.34;95826.41;5008534;28;20214;-86
2023/06/23 05:26:34;;;;;;;1.88;1.20;;;;;;;20.87;85.54;95835.66;5010334;28;20210;-87
2023/06/23 05:29:13;;;;;;;2.03;0.90;;;;;;;20.66;88.72;95837.13;5010186;28;20411;-87
2023/06/23 05:31:42;;;;;;;0.82;0.70;;;;;;;20.84;87.24;95842.16;5010172;28;20257;-86
2023/06/23 05:34:19;;;;;;;2.47;1.08;;;;;;;20.98;87.91;95843.44;5009432;28;20582;-86
2023/06/23 05:36:55;;;;;;;1.42;0.85;;;;;;;20.93;87.11;95859.09;5009732;28;20202;-86
2023/06/23 05:39:28;;;;;;;0.80;0.80;;;;;;;20.92;87.67;95867.97;5002683;28;20195;-86
2023/06/23 05:41:54;;;;;;;0.80;0.77;;;;;;;20.71;86.79;95865.22;5004900;28;20649;-85
2023/06/23 05:44:24;;;;;;;1.00;0.80;;;;;;;20.74;87.36;95872.59;5011302;28;20202;-86
2023/06/23 05:46:59;;;;;;;1.42;0.80;;;;;;;20.53;86.79;95887.91;5010309;28;20286;-86
2023/06/23 05:49:28;;;;;;;1.05;0.80;;;;;;;20.35;87.58;95891.44;5011085;28;20870;-87
2023/06/23 05:52:00;;;;;;;0.80;0.80;;;;;;;20.34;87.97;95899.50;5010160;28;20772;-86
2023/06/23 05:54:29;;;;;;;2.03;0.90;;;;;;;20.33;88.73;95901.31;5003052;28;20219;-86
2023/06/23 05:57:00;;;;;;;3.10;1.05;;;;;;;20.31;89.04;95908.59;5006703;28;20218;-85
2023/06/23 05:59:45;;;;;;;0.90;0.90;;;;;;;20.35;89.78;95908.94;5010881;28;20293;-86
2023/06/23 06:05:02;;;;;;;2.65;2.47;;;;;;;20.65;87.48;95921.88;5009292;28;20856;-87
2023/06/23 06:07:30;;;;;;;4.40;4.05;;;;;;;20.75;86.86;95924.72;5010203;28;20305;-86
2023/06/23 06:12:46;;;;;;;2.35;1.42;;;;;;;20.73;86.53;95939.84;5008685;28;20202;-86
2023/06/23 06:15:15;;;;;;;1.83;1.73;;;;;;;20.65;88.14;95945.41;5010226;28;20282;-86
2023/06/23 06:17:43;;;;;;;1.58;1.40;;;;;;;20.61;86.23;95952.13;5010143;28;20236;-86
2023/06/23 06:20:30;;;;;;;1.55;1.33;;;;;;;20.66;86.58;95967.94;5012517;28;20191;-87
2023/06/23 06:23:00;;;;;;;2.47;2.00;;;;;;;20.56;86.61;95968.53;5013843;28;20194;-87
2023/06/23 06:25:48;;;;;;;;;;;;;;;;;;;;;
2023/06/23 06:28:17;;;;;;;3.38;1.80;;;;;;;20.60;87.43;95979.31;5005820;28;20227;-87
2023/06/23 06:31:09;;;;;;;2.50;2.30;;;;;;;20.45;86.70;95992.09;5012542;28;20257;-86
2023/06/23 06:33:37;;;;;;;2.33;2.13;;;;;;;20.47;87.74;96001.31;5013260;28;20213;-83
2023/06/23 06:36:26;;;;;;;3.78;2.88;;;;;;;20.53;86.13;96000.41;5012629;28;20202;-87
2023/06/23 06:39:25;;;;;;;;;;;;;;;;;;;;;
2023/06/23 06:42:21;;;;;;;3.08;2.80;;;;;;;20.52;86.78;96019.72;5011929;28;20191;-87
2023/06/23 06:45:08;;;;;;;3.85;3.00;;;;;;;20.43;85.53;96025.50;5009626;28;20203;-88
2023/06/23 06:47:43;;;;;;;4.35;3.95;;;;;;;20.46;85.29;96025.06;4998134;28;20226;-87
2023/06/23 06:50:34;;;;;;;18.92;17.23;;;;;;;20.40;86.01;96026.75;5007568;28;20687;-87
2023/06/23 06:56:07;;;;;;;4.85;4.35;;;;;;;20.47;85.36;96024.84;4984968;28;20206;-87
2023/06/23 06:58:49;;;;;;;4.18;3.83;;;;;;;20.56;85.01;96033.16;5012334;28;20222;-87
2023/06/23 07:01:23;;;;;;;4.78;4.20;;;;;;;20.47;83.75;96024.03;5011367;28;20213;-87
2023/06/23 07:09:26;;;;;;;4.43;4.00;;;;;;;20.55;85.81;96034.19;5037952;22;20238;-89
2023/06/23 07:11:57;;;;;;;4.55;4.15;;;;;;;20.50;84.13;96026.22;4977844;28;20207;-88
2023/06/23 07:17:06;;;;;;;4.47;3.92;;;;;;;20.54;83.12;96029.97;4981682;28;20199;-87
2023/06/23 07:19:42;;;;;;;5.05;4.53;;;;;;;20.63;83.00;96034.63;4991434;28;20242;-88
2023/06/23 07:22:17;;;;;;;4.55;4.15;;;;;;;20.74;83.15;96040.88;4988376;28;20200;-87
2023/06/23 07:24:43;;;;;;;5.07;4.55;;;;;;;20.87;80.86;96038.03;4992234;28;20877;-86
2023/06/23 07:27:14;;;;;;;5.05;4.65;;;;;;;20.71;79.73;96043.16;4989086;28;20203;-87
2023/06/23 07:29:41;;;;;;;5.70;5.20;;;;;;;20.64;80.35;96044.06;4992056;28;20896;-88
2023/06/23 07:32:28;;;;;;;;;;;;;;;;;;;;;
2023/06/23 07:34:57;;;;;;;5.35;4.95;;;;;;;20.67;80.05;96055.91;4991144;28;20211;-88
2023/06/23 07:37:27;;;;;;;5.40;4.90;;;;;;;20.78;80.37;96062.97;4994681;28;20234;-87
2023/06/23 07:39:59;;;;;;;5.25;4.75;;;;;;;20.88;79.46;96063.19;4991694;28;20204;-86
2023/06/23 07:42:26;;;;;;;5.18;4.78;;;;;;;20.96;79.21;96062.03;4993584;28;20207;-87
2023/06/23 07:44:53;;;;;;;5.25;4.75;;;;;;;20.99;78.32;96056.31;4992683;28;20604;-88
2023/06/23 07:47:19;;;;;;;5.25;4.75;;;;;;;20.95;78.53;96063.88;4986079;28;20243;-87
2023/06/23 07:50:11;;;;;;;5.10;4.60;;;;;;;20.95;78.63;96069.09;4988629;28;20223;-88
2023/06/23 07:52:37;;;;;;;5.45;4.85;;;;;;;20.93;78.16;96071.16;4973963;28;20195;-87
2023/06/23 07:55:05;;;;;;;4.80;4.40;;;;;;;21.01;78.77;96078.63;4990917;28;20215;-87
2023/06/23 07:57:31;;;;;;;6.10;5.50;;;;;;;20.91;77.67;96082.88;4990585;28;20627;-86
2023/06/23 07:59:59;;;;;;;6.30;5.80;;;;;;;20.95;78.12;96092.66;4992036;28;20203;-87
2023/06/23 08:02:26;;;;;;;9.90;9.00;;;;;;;20.93;77.33;96079.00;4993251;28;20202;-86
2023/06/23 08:04:58;;;;;;;5.72;5.30;;;;;;;20.97;77.53;96085.34;4989863;28;20207;-87
2023/06/23 08:10:19;;;;;;;5.47;5.07;;;;;;;20.92;75.84;96087.09;4989996;28;20231;-86
2023/06/23 08:12:45;;;;;;;5.90;5.40;;;;;;;21.02;75.57;96092.53;4981297;28;20206;-88
2023/06/23 08:15:12;;;;;;;6.55;5.95;;;;;;;21.04;74.45;96083.41;4981345;28;20203;-87
2023/06/23 08:17:41;;;;;;;5.47;5.07;;;;;;;21.23;73.96;96080.69;4991799;28;20215;-87
2023/06/23 08:20:12;;;;;;;6.13;5.53;;;;;;;21.40;73.02;96078.13;4987635;28;20192;-86
2023/06/23 08:22:40;;;;;;;6.15;5.55;;;;;;;21.55;73.31;96079.22;4979785;28;20210;-87
2023/06/23 08:25:08;;;;;;;6.68;6.07;;;;;;;21.65;72.68;96084.66;4972286;28;20264;-87
2023/06/23 08:27:34;;;;;;;6.82;6.13;;;;;;;21.55;71.31;96094.94;4986924;28;20219;-88
2023/06/23 08:30:24;;;;;;;6.38;5.88;;;;;;;21.37;71.57;96090.66;4984246;28;20232;-87
2023/06/23 08:32:52;;;;;;;6.63;6.10;;;;;;;21.35;71.80;96097.19;4982513;28;20223;-87
2023/06/23 08:35:32;;;;;;;6.60;6.00;;;;;;;21.45;71.86;96092.13;4990413;28;20192;-87
2023/06/23 08:38:00;;;;;;;6.38;5.78;;;;;;;21.53;71.54;96110.13;4989332;28;20215;-88
2023/06/23 08:40:27;;;;;;;6.72;6.13;;;;;;;21.51;71.52;96103.53;4980579;28;20196;-87
2023/06/23 08:42:57;;;;;;;6.95;6.25;;;;;;;21.61;70.53;96104.50;4975594;28;20214;-86
2023/06/23 08:45:44;;;;;;;6.55;5.95;;;;;;;21.62;69.92;96111.34;4989959;28;20199;-87
2023/06/23 08:48:11;;;;;;;13.63;12.27;;;;;;;21.61;69.61;96114.19;4984780;28;20226;-86
2023/06/23 08:51:03;;;;;;;7.68;6.82;;;;;;;21.53;69.33;96115.38;4985905;28;20192;-88
2023/06/23 08:56:14;;;;;;;8.43;7.63;;;;;;;21.46;66.79;96119.94;4976188;28;20684;-87
2023/06/23 08:58:40;;;;;;;7.22;6.63;;;;;;;21.68;67.06;96125.34;4989149;28;20223;-87
2023/06/23 09:01:07;;;;;;;7.60;7.00;;;;;;;21.86;65.36;96117.31;4987955;28;20211;-86
2023/06/23 09:03:34;;;;;;;9.18;7.18;;;;;;;21.99;65.51;96121.47;4986279;28;20226;-86
2023/06/23 09:06:01;;;;;;;9.02;6.93;;;;;;;22.02;63.86;96128.91;4989088;28;20203;-87
2023/06/23 09:09:23;;;;;;;7.47;6.78;;;;;;;22.01;63.88;96125.47;4987942;28;20314;-87
2023/06/23 09:11:51;;;;;;;7.43;6.72;;;;;;;22.15;63.32;96127.81;4986514;28;20215;-87
2023/06/23 09:14:19;;;;;;;11.40;10.40;;;;;;;22.35;62.99;96126.31;4987299;28;20201;-87
2023/06/23 09:16:52;;;;;;;7.40;6.80;;;;;;;22.30;61.95;96126.25;4989012;28;20204;-87
2023/06/23 09:19:18;;;;;;;8.00;7.20;;;;;;;22.46;61.97;96135.19;4986890;28;21118;-87
2023/06/23 09:22:47;;;;;;;8.93;8.02;;;;;;;22.32;60.04;96131.28;4987695;28;20231;-88
2023/06/23 09:25:43;;;;;;;8.30;7.50;;;;;;;22.35;61.28;96120.28;4969308;28;20576;-87
2023/06/23 09:28:50;;;;;;;8.15;7.43;;;;;;;22.45;62.12;96119.66;4976123;28;20219;-87
2023/06/23 09:31:21;;;;;;;8.15;7.45;;;;;;;22.53;60.92;96111.38;4970818;28;20199;-87
2023/06/23 09:34:08;;;;;;;9.18;8.38;;;;;;;22.56;60.02;96109.09;4988538;28;20282;-87
2023/06/23 09:37:29;;;;;;;8.95;8.25;;;;;;;22.70;60.87;96109.59;4949198;28;20211;-87
2023/06/23 09:40:09;;;;;;;8.63;7.93;;;;;;;22.77;58.14;96098.91;4902907;29;20961;-87
2023/06/23 09:42:36;;;;;;;8.57;7.78;;;;;;;22.88;58.08;96090.97;4918539;28;20195;-87
2023/06/23 09:45:08;;;;;;;8.45;7.75;;;;;;;22.61;57.01;96090.78;4972053;28;20219;-87
2023/06/23 09:47:39;;;;;;;9.23;8.43;;;;;;;22.56;56.29;96084.66;4970611;28;20221;-87
2023/06/23 09:50:17;;;;;;;9.35;8.55;;;;;;;22.54;57.26;96090.16;4986224;28;20227;-87
2023/06/23 09:52:44;;;;;;;8.88;8.07;;;;;;;22.59;57.45;96084.19;4984015;28;20199;-87
2023/06/23 09:55:11;;;;;;;8.90;8.10;;;;;;;22.60;57.38;96081.34;4987983;28;20203;-87
2023/06/23 09:57:38;;;;;;;9.55;8.27;;;;;;;22.72;57.29;96094.34;4986447;28;20298;-87
2023/06/23 10:00:09;;;;;;;9.20;8.38;;;;;;;22.80;57.23;96077.44;4987631;28;20200;-87
2023/06/23 10:03:48;;;;;;;9.38;8.50;;;;;;;22.77;56.41;96077.88;4989124;28;20290;-87
2023/06/23 10:06:24;;;;;;;8.93;8.15;;;;;;;22.62;56.92;96075.84;4987278;28;20214;-88
2023/06/23 10:08:54;;;;;;;16.20;14.52;;;;;;;22.70;57.00;96075.44;4980714;28;20327;-88
2023/06/23 10:11:28;;;;;;;8.50;7.80;;;;;;;22.95;56.60;96065.31;4968685;28;20258;-87
2023/06/23 10:13:55;;;;;;;8.65;7.75;;;;;;;22.85;54.67;96067.03;4970511;28;20207;-87
2023/06/23 10:16:21;;;;;;;8.65;7.75;;;;;;;22.95;54.83;96060.06;4973554;28;20228;-87
2023/06/23 10:18:52;;;;;;;7.95;7.15;;;;;;;23.09;54.94;96068.41;4969595;28;20605;-87
2023/06/23 10:21:19;;;;;;;7.35;6.75;;;;;;;22.98;53.60;96067.47;4982479;28;20200;-87
2023/06/23 10:23:47;;;;;;;7.60;6.93;;;;;;;22.68;52.16;96075.69;4985389;28;20215;-86
2023/06/23 10:26:15;;;;;;;8.88;6.60;;;;;;;22.61;53.30;96082.13;4975188;28;20597;-89
2023/06/23 10:28:44;;;;;;;6.43;5.82;;;;;;;22.71;53.40;96075.19;4988183;28;20227;-88
2023/06/23 10:31:10;;;;;;;6.40;5.80;;;;;;;22.98;52.78;96067.47;4983743;28;20251;-87
2023/06/23 10:33:39;;;;;;;6.75;5.80;;;;;;;23.40;52.47;96069.56;4971158;28;20224;-87
2023/06/23 10:36:09;;;;;;;6.47;5.88;;;;;;;23.69;50.78;96054.38;4981379;28;20196;-89
2023/06/23 10:38:47;;;;;;;7.10;6.15;;;;;;;23.70;50.71;96063.88;4987533;28;20314;-88
2023/06/23 10:41:15;;;;;;;6.78;6.20;;;;;;;23.56;52.44;96071.34;4981455;28;20208;-88
2023/06/23 10:43:45;;;;;;;6.97;6.38;;;;;;;23.34;50.80;96062.66;4984435;28;20200;-89
2023/06/23 10:46:14;;;;;;;6.07;5.57;;;;;;;23.32;52.40;96069.97;4986243;28;20230;-88
2023/06/23 10:48:53;;;;;;;6.63;6.03;;;;;;;23.08;51.24;96079.94;4968973;28;20275;-88
2023/06/23 10:51:29;;;;;;;6.78;5.97;;;;;;;23.00;51.20;96082.97;4965951;28;20204;-88
2023/06/23 10:53:58;;;;;;;6.03;5.50;;;;;;;23.06;51.98;96082.03;4968750;28;20216;-88
2023/06/23 10:56:45;;;;;;;6.95;6.25;;;;;;;22.86;53.39;96082.53;4979031;28;20250;-89
2023/06/23 10:59:30;;;;;;;7.82;7.20;;;;;;;22.68;53.29;96082.78;4985398;28;20266;-88
2023/06/23 11:02:20;;;;;;;8.00;7.28;;;;;;;22.61;53.51;96100.50;4968885;28;20617;-88
2023/06/23 11:04:56;;;;;;;8.90;7.10;;;;;;;22.53;53.33;96100.88;4969773;28;20632;-89
2023/06/23 11:07:24;;;;;;;7.68;7.00;;;;;;;22.84;53.77;96107.44;4970154;28;20589;-88
2023/06/23 11:10:06;;;;;;;8.43;7.55;;;;;;;22.99;52.99;96099.78;4972126;28;20224;-88
2023/06/23 11:12:43;;;;;;;7.80;7.18;;;;;;;23.16;52.88;96105.78;4985769;28;20195;-88
2023/06/23 11:15:28;;;;;;;7.85;7.20;;;;;;;23.27;52.42;96114.63;4986377;28;20208;-88
2023/06/23 11:18:05;;;;;;;9.68;8.77;;;;;;;23.52;50.91;96107.06;4972277;28;20227;-87
2023/06/23 11:20:40;;;;;;;8.38;7.50;;;;;;;23.91;51.11;96109.59;4979241;28;20196;-88
2023/06/23 11:23:12;;;;;;;9.07;7.88;;;;;;;24.33;49.87;96112.41;4992059;28;20217;-88
2023/06/23 11:25:46;;;;;;;9.30;8.38;;;;;;;24.36;49.24;96101.38;4991907;28;20215;-89
2023/06/23 11:28:38;;;;;;;7.93;7.18;;;;;;;24.52;50.06;96104.94;4973505;28;20238;-88
2023/06/23 11:31:20;;;;;;;7.45;6.78;;;;;;;24.78;48.59;96107.50;4980625;28;21680;-88
2023/06/23 11:34:07;;;;;;;7.63;7.03;;;;;;;24.57;47.84;96111.03;4976740;28;20203;-88
2023/06/23 11:36:39;;;;;;;7.80;6.55;;;;;;;24.43;48.33;96104.59;4971010;28;20216;-88
2023/06/23 11:39:19;;;;;;;6.10;5.50;;;;;;;24.19;48.70;96105.94;4971207;28;20224;-88
2023/06/23 11:41:45;;;;;;;6.07;5.53;;;;;;;24.09;49.13;96090.81;4972415;28;20299;-88
2023/06/23 11:44:25;;;;;;;6.80;6.28;;;;;;;23.97;49.38;96103.34;4989601;28;20700;-89
2023/06/23 11:46:53;;;;;;;6.43;5.85;;;;;;;23.91;49.28;96115.66;4991672;28;20215;-88
2023/06/23 11:52:39;;;;;;;6.00;5.40;;;;;;;23.99;47.43;96111.78;4990048;28;20620;-88
2023/06/23 11:55:38;;;;;;;5.43;4.93;;;;;;;24.14;47.31;96101.41;4991498;28;20207;-89
2023/06/23 11:58:47;;;;;;;4.72;4.20;;;;;;;24.28;44.53;96102.63;4985183;28;20255;-87
2023/06/23 12:04:12;;;;;;;5.78;4.15;;;;;;;25.32;41.50;96109.16;4988878;28;20669;-89
2023/06/23 12:06:50;;;;;;;4.25;3.80;;;;;;;25.57;40.73;96117.19;4990699;28;20197;-88
2023/06/23 12:09:27;;;;;;;4.20;3.80;;;;;;;25.48;39.90;96113.44;4991186;28;20573;-88
2023/06/23 12:11:58;;;;;;;4.43;3.95;;;;;;;25.56;40.50;96105.06;4991042;28;20564;-89
2023/06/23 12:14:34;;;;;;;4.57;4.28;;;;;;;25.61;39.79;96099.78;4990736;28;20195;-88
2023/06/23 12:17:15;;;;;;;4.57;4.18;;;;;;;25.68;39.76;96095.09;4986149;28;20203;-88
2023/06/23 12:19:54;;;;;;;4.38;4.03;;;;;;;25.78;39.29;96103.06;4991052;28;20199;-88
2023/06/23 12:22:48;;;;;;;4.28;3.80;;;;;;;26.17;40.37;96113.13;4991123;28;20214;-88
2023/06/23 12:25:29;;;;;;;3.90;3.60;;;;;;;26.12;39.29;96113.16;4989557;28;20306;-88
2023/06/23 12:27:57;;;;;;;4.13;3.80;;;;;;;26.15;38.37;96116.06;4980197;28;20216;-88
2023/06/23 12:30:51;;;;;;;4.70;4.30;;;;;;;26.07;38.14;96105.22;4970927;28;20227;-88
2023/06/23 12:33:38;;;;;;;4.78;3.83;;;;;;;26.09;38.12;96111.81;4982693;28;20203;-88